Time;durP1;ratioP1;P1;durP2;ratioP2;P2;SDS_P1;SDS_P2;PMS_P1;PMS_P2;Temp;Humidity;BMP_temperature;BMP_pressure;BME280_temperature;BME280_humidity;BME280_pressure;Samples;Min_cycle;Max_cycle;Signal;HPM_P1;HPM_P2
2022/05/25 00:00:26;;;;;;;10.43;7.03;;;9.90;87.20;;;;;;5093238;28;20039;-89
2022/05/25 00:02:52;;;;;;;8.80;6.82;;;9.90;87.20;;;;;;5093274;28;20123;-89
2022/05/25 00:05:19;;;;;;;11.20;7.03;;;9.90;88.00;;;;;;5093389;28;20027;-88
2022/05/25 00:07:45;;;;;;;8.65;6.30;;;9.80;87.80;;;;;;5093024;28;20055;-89
2022/05/25 00:10:12;;;;;;;8.52;6.78;;;9.70;88.00;;;;;;5094726;28;20066;-88
2022/05/25 00:12:42;;;;;;;10.18;6.85;;;9.70;88.10;;;;;;5094416;28;20017;-89
2022/05/25 00:15:09;;;;;;;8.77;6.57;;;9.60;88.20;;;;;;5094410;28;20020;-88
2022/05/25 00:17:35;;;;;;;9.82;6.45;;;9.60;88.40;;;;;;5093139;28;20296;-88
2022/05/25 00:20:01;;;;;;;8.05;5.95;;;9.50;88.50;;;;;;5093042;28;20086;-89
2022/05/25 00:22:38;;;;;;;10.32;6.70;;;9.40;88.80;;;;;;5093299;28;20425;-89
2022/05/25 00:25:05;;;;;;;13.73;6.78;;;9.40;89.20;;;;;;5093158;28;20016;-88
2022/05/25 00:27:31;;;;;;;10.30;6.57;;;9.30;89.40;;;;;;5094221;28;20028;-89
2022/05/25 00:29:56;;;;;;;11.98;6.82;;;9.30;89.80;;;;;;5094489;28;20020;-89
2022/05/25 00:32:22;;;;;;;9.05;6.75;;;9.30;90.20;;;;;;5097255;28;20026;-89
2022/05/25 00:34:48;;;;;;;12.13;6.97;;;9.20;90.10;;;;;;5098170;28;20490;-89
2022/05/25 00:37:14;;;;;;;10.38;7.05;;;9.20;90.10;;;;;;5097167;28;20020;-89
2022/05/25 00:39:40;;;;;;;11.05;6.80;;;9.10;90.20;;;;;;5097372;28;20028;-89
2022/05/25 00:42:06;;;;;;;11.43;7.00;;;9.00;90.40;;;;;;5097059;28;20024;-89
2022/05/25 00:44:32;;;;;;;11.13;6.60;;;9.00;90.60;;;;;;5098287;28;20531;-89
2022/05/25 00:46:58;;;;;;;9.40;6.75;;;9.00;90.60;;;;;;5096640;28;20028;-88
2022/05/25 00:49:31;;;;;;;9.73;7.05;;;9.00;90.70;;;;;;5097959;28;20024;-89
2022/05/25 00:52:10;;;;;;;10.75;7.20;;;8.90;90.90;;;;;;5096792;28;20028;-89
2022/05/25 00:54:41;;;;;;;9.88;6.90;;;8.90;90.90;;;;;;5097944;28;20021;-89
2022/05/25 00:57:14;;;;;;;9.23;7.10;;;8.80;90.90;;;;;;5097844;28;20024;-88
2022/05/25 01:00:28;;;;;;;10.90;7.55;;;8.80;91.40;;;;;;5096950;28;20028;-89
2022/05/25 01:03:01;;;;;;;11.95;8.13;;;8.70;91.20;;;;;;5096123;28;20435;-89
2022/05/25 01:05:43;;;;;;;12.63;7.68;;;8.70;91.20;;;;;;5096645;28;20024;-89
2022/05/25 01:08:40;;;;;;;10.20;7.00;;;8.60;91.30;;;;;;5097440;28;20053;-89
2022/05/25 01:11:18;;;;;;;9.05;6.80;;;8.60;91.50;;;;;;5063707;28;20028;-88
2022/05/25 01:14:14;;;;;;;10.75;7.30;;;8.60;91.50;;;;;;5096405;28;20017;-88
2022/05/25 01:17:02;;;;;;;9.73;7.22;;;8.50;91.70;;;;;;5097520;28;20020;-89
2022/05/25 01:19:40;;;;;;;12.68;7.68;;;8.50;91.80;;;;;;5096411;28;20028;-89
2022/05/25 01:22:43;;;;;;;12.80;7.47;;;8.50;92.00;;;;;;5096226;28;20054;-89
2022/05/25 01:25:41;;;;;;;12.85;7.80;;;8.40;92.10;;;;;;5096215;28;20020;-89
2022/05/25 01:28:26;;;;;;;11.10;7.95;;;8.40;92.30;;;;;;5112279;28;20119;-88
2022/05/25 01:30:54;;;;;;;11.80;7.85;;;8.30;92.30;;;;;;5096029;28;20462;-89
2022/05/25 01:33:41;;;;;;;11.10;7.65;;;8.30;92.50;;;;;;5096049;28;20499;-89
2022/05/25 01:36:24;;;;;;;12.48;8.32;;;8.30;92.70;;;;;;5097067;28;20024;-88
2022/05/25 01:38:56;;;;;;;11.20;7.97;;;8.30;92.70;;;;;;5096365;28;20032;-89
2022/05/25 01:41:35;;;;;;;12.18;8.02;;;8.20;92.80;;;;;;5095593;28;20044;-89
2022/05/25 01:44:16;;;;;;;13.10;8.80;;;8.20;92.80;;;;;;5097173;28;20035;-89
2022/05/25 01:46:48;;;;;;;10.80;7.82;;;8.20;93.00;;;;;;5096900;28;20024;-89
2022/05/25 01:49:21;;;;;;;11.65;7.60;;;8.20;93.10;;;;;;5096773;28;20459;-89
2022/05/25 01:51:55;;;;;;;12.90;9.10;;;8.10;93.20;;;;;;5095700;28;20020;-89
2022/05/25 01:54:24;;;;;;;11.00;8.00;;;8.10;93.90;;;;;;5096736;28;20037;-89
2022/05/25 01:56:54;;;;;;;11.90;8.10;;;8.10;94.00;;;;;;5096801;28;20055;-89
2022/05/25 01:59:20;;;;;;;15.82;8.80;;;8.10;93.90;;;;;;5095207;28;20049;-89
2022/05/25 02:04:19;;;;;;;15.30;8.77;;;8.00;93.90;;;;;;5095406;28;20032;-89
2022/05/25 02:04:44;;;;;;;13.27;8.98;;;8.00;94.00;;;;;;5096487;28;20025;-89
2022/05/25 02:07:38;;;;;;;13.25;8.30;;;8.00;94.10;;;;;;5095318;28;20032;-88
2022/05/25 02:10:25;;;;;;;14.15;7.88;;;8.00;94.20;;;;;;5096695;28;20043;-89
2022/05/25 02:13:28;;;;;;;15.23;8.80;;;8.00;94.30;;;;;;5095321;28;20043;-89
2022/05/25 02:15:58;;;;;;;13.27;9.68;;;8.00;94.50;;;;;;5095236;28;20459;-89
2022/05/25 02:19:05;;;;;;;10.75;8.48;;;8.00;94.60;;;;;;5095059;28;20028;-89
2022/05/25 02:21:56;;;;;;;17.88;9.18;;;8.00;94.70;;;;;;5088229;28;20032;-89
2022/05/25 02:24:30;;;;;;;14.20;8.73;;;8.00;94.90;;;;;;5095029;28;20488;-89
2022/05/25 02:27:09;;;;;;;13.93;8.95;;;8.00;95.00;;;;;;5096051;28;20031;-88
2022/05/25 02:29:40;;;;;;;14.97;8.77;;;8.10;95.40;;;;;;5096044;28;20459;-88
2022/05/25 02:32:10;;;;;;;;;;;8.10;95.40;;;;;;5096562;28;20020;-88
2022/05/25 02:34:39;;;;;;;10.65;8.23;;;8.10;95.70;;;;;;5094845;28;19911;-88
2022/05/25 02:37:05;;;;;;;13.30;8.93;;;8.30;96.00;;;;;;5095904;28;20024;-88
2022/05/25 02:39:31;;;;;;;17.02;9.23;;;8.30;96.30;;;;;;5094736;28;20028;-88
2022/05/25 02:41:57;;;;;;;14.70;8.40;;;8.40;96.40;;;;;;5094629;28;20085;-88
2022/05/25 02:44:24;;;;;;;15.15;9.13;;;8.50;96.30;;;;;;5095651;28;20030;-88
2022/05/25 02:46:51;;;;;;;14.75;9.30;;;8.60;96.60;;;;;;5094436;28;20166;-88
2022/05/25 02:49:17;;;;;;;15.73;9.32;;;8.60;96.70;;;;;;5094426;28;20475;-88
2022/05/25 02:51:44;;;;;;;15.88;9.88;;;8.80;96.80;;;;;;5093729;28;20043;-88
2022/05/25 02:54:09;;;;;;;18.30;9.48;;;8.90;96.90;;;;;;5094044;28;20119;-88
2022/05/25 02:56:36;;;;;;;16.13;9.15;;;9.00;96.80;;;;;;5094368;28;20055;-88
2022/05/25 02:59:02;;;;;;;13.23;9.65;;;9.20;96.80;;;;;;5094395;28;20424;-88
2022/05/25 03:01:28;;;;;;;17.58;10.32;;;9.30;96.80;;;;;;5094237;28;20114;-88
2022/05/25 03:03:54;;;;;;;12.50;9.07;;;9.40;96.70;;;;;;5095295;28;20028;-88
2022/05/25 03:06:20;;;;;;;14.82;9.43;;;9.50;96.50;;;;;;5094718;28;20032;-88
2022/05/25 03:08:46;;;;;;;12.90;9.27;;;9.60;96.30;;;;;;5093927;28;20050;-88
2022/05/25 03:11:12;;;;;;;14.70;9.48;;;9.70;96.10;;;;;;5093950;28;20024;-88
2022/05/25 03:13:38;;;;;;;16.52;8.75;;;9.70;96.00;;;;;;5093982;28;20027;-88
2022/05/25 03:16:12;;;;;;;13.13;8.32;;;9.80;95.90;;;;;;5095146;28;20047;-88
2022/05/25 03:18:38;;;;;;;15.70;9.38;;;9.80;95.80;;;;;;5093766;28;20024;-88
2022/05/25 03:21:04;;;;;;;14.60;9.85;;;9.90;95.70;;;;;;5093775;28;20431;-88
2022/05/25 03:23:29;;;;;;;13.00;9.18;;;9.90;95.20;;;;;;5093941;28;20024;-88
2022/05/25 03:25:55;;;;;;;14.43;9.95;;;10.00;94.90;;;;;;5094842;28;20024;-88
2022/05/25 03:28:21;;;;;;;12.93;8.50;;;10.10;94.80;;;;;;5094742;28;20462;-88
2022/05/25 03:30:47;;;;;;;16.48;9.73;;;10.20;94.80;;;;;;5093793;28;20470;-88
2022/05/25 03:33:14;;;;;;;14.50;9.18;;;10.30;94.60;;;;;;5093769;28;20024;-88
2022/05/25 03:35:40;;;;;;;14.60;9.38;;;10.40;94.50;;;;;;5093856;28;20024;-88
2022/05/25 03:38:06;;;;;;;12.88;8.90;;;10.50;94.20;;;;;;5093807;28;20035;-88
2022/05/25 03:40:33;;;;;;;13.95;9.65;;;10.70;94.10;;;;;;5094728;28;20099;-87
2022/05/25 03:42:59;;;;;;;16.08;8.63;;;10.90;94.10;;;;;;5093640;28;20024;-88
2022/05/25 03:45:24;;;;;;;15.07;8.63;;;11.00;93.90;;;;;;5093347;28;20488;-88
2022/05/25 03:47:51;;;;;;;15.85;8.70;;;11.20;93.70;;;;;;5091518;28;20028;-88
2022/05/25 03:50:18;;;;;;;12.20;7.95;;;11.40;93.60;;;;;;5093434;28;20111;-89
2022/05/25 03:52:44;;;;;;;13.85;8.10;;;11.50;92.50;;;;;;5093336;28;20048;-88
2022/05/25 03:55:10;;;;;;;9.48;7.00;;;11.70;91.40;;;;;;5094385;28;20024;-89
2022/05/25 03:57:36;;;;;;;13.90;7.15;;;11.90;90.50;;;;;;5093477;28;20024;-88
2022/05/25 04:00:02;;;;;;;10.57;6.75;;;12.00;88.80;;;;;;5093384;28;20016;-88
2022/05/25 04:02:28;;;;;;;11.63;7.22;;;12.10;88.40;;;;;;5091994;28;20156;-88
2022/05/25 04:05:09;;;;;;;10.05;6.78;;;12.30;87.40;;;;;;5091687;28;20115;-88
2022/05/25 04:07:36;;;;;;;10.73;6.68;;;12.40;86.80;;;;;;5092986;28;20469;-88
2022/05/25 04:10:03;;;;;;;10.00;6.50;;;12.50;87.20;;;;;;5092181;28;20020;-88
2022/05/25 04:12:30;;;;;;;9.43;6.47;;;12.60;86.70;;;;;;5093063;28;20020;-88
2022/05/25 04:14:55;;;;;;;12.55;6.85;;;12.70;85.30;;;;;;5091987;28;20024;-88
2022/05/25 04:17:21;;;;;;;10.23;6.65;;;12.80;84.50;;;;;;5092777;28;20027;-87
2022/05/25 04:19:47;;;;;;;10.25;6.47;;;12.90;84.10;;;;;;5092751;28;20024;-88
2022/05/25 04:22:12;;;;;;;11.57;6.47;;;13.00;84.40;;;;;;5092823;28;20459;-88
2022/05/25 04:24:38;;;;;;;7.45;5.82;;;13.20;83.70;;;;;;5093330;28;20020;-88
2022/05/25 04:27:04;;;;;;;7.82;5.60;;;13.30;84.30;;;;;;5093495;28;20431;-88
2022/05/25 04:29:29;;;;;;;9.25;5.90;;;13.40;84.10;;;;;;5093546;28;20039;-88
2022/05/25 04:31:55;;;;;;;7.03;5.20;;;13.60;84.00;;;;;;5092827;28;20028;-90
2022/05/25 04:34:20;;;;;;;9.90;6.18;;;13.80;83.10;;;;;;5092581;28;20024;-88
2022/05/25 04:36:46;;;;;;;17.08;11.20;;;13.90;82.70;;;;;;5093782;28;20024;-86
2022/05/25 04:39:12;;;;;;;10.20;6.10;;;14.10;81.00;;;;;;5092478;28;20028;-86
2022/05/25 04:41:37;;;;;;;15.35;6.32;;;14.20;80.90;;;;;;5092736;28;20024;-86
2022/05/25 04:44:04;;;;;;;10.93;6.75;;;14.30;79.40;;;;;;5092335;28;20174;-86
2022/05/25 04:46:30;;;;;;;11.68;6.03;;;14.50;79.10;;;;;;5108675;28;20500;-86
2022/05/25 04:48:57;;;;;;;8.35;6.03;;;14.60;79.00;;;;;;5091691;28;20028;-86
2022/05/25 04:51:22;;;;;;;9.90;6.05;;;14.80;78.10;;;;;;5091726;28;20078;-86
2022/05/25 04:53:49;;;;;;;8.70;6.13;;;15.00;76.00;;;;;;5091679;28;20020;-86
2022/05/25 04:58:58;;;;;;;15.50;5.90;;;15.30;75.40;;;;;;5091471;28;20117;-86
2022/05/25 05:01:24;;;;;;;12.00;6.18;;;15.50;75.00;;;;;;5089779;28;20082;-86
2022/05/25 05:03:50;;;;;;;7.57;5.32;;;15.60;75.00;;;;;;5091147;28;20031;-86
2022/05/25 05:06:16;;;;;;;10.38;5.72;;;15.70;74.70;;;;;;5089876;28;20030;-86
2022/05/25 05:08:42;;;;;;;7.65;5.70;;;15.90;72.60;;;;;;5089921;28;20402;-86
2022/05/25 05:11:11;;;;;;;9.95;5.93;;;15.90;72.30;;;;;;5090990;28;20020;-87
2022/05/25 05:13:37;;;;;;;10.65;5.53;;;16.00;71.70;;;;;;5092070;28;20077;-86
2022/05/25 05:16:06;;;;;;;8.43;5.40;;;16.20;71.30;;;;;;5094821;28;20024;-86
2022/05/25 05:18:33;;;;;;;9.38;5.38;;;16.30;72.20;;;;;;5097187;28;20044;-87
2022/05/25 05:20:58;;;;;;;10.40;5.47;;;16.40;71.40;;;;;;5097118;28;20027;-86
2022/05/25 05:23:25;;;;;;;7.00;4.93;;;16.50;71.80;;;;;;5095792;28;20471;-87
2022/05/25 05:25:50;;;;;;;7.00;4.60;;;16.60;72.20;;;;;;5095511;28;20060;-86
2022/05/25 05:28:19;;;;;;;8.10;5.40;;;16.70;72.00;;;;;;5095516;28;20070;-86
2022/05/25 05:30:50;;;;;;;11.63;5.45;;;16.80;70.20;;;;;;5095573;28;20021;-86
2022/05/25 05:33:15;;;;;;;;;;;16.90;70.00;;;;;;5097115;28;20462;-86
2022/05/25 05:35:44;;;;;;;6.43;4.55;;;17.00;70.90;;;;;;5095510;28;19911;-86
2022/05/25 05:38:11;;;;;;;9.27;5.00;;;17.10;71.10;;;;;;5095206;28;20390;-86
2022/05/25 05:40:38;;;;;;;7.95;5.15;;;17.30;69.10;;;;;;5096210;28;20031;-86
2022/05/25 05:43:06;;;;;;;7.05;4.85;;;17.40;69.10;;;;;;5096874;28;20063;-86
2022/05/25 05:45:38;;;;;;;7.68;4.60;;;17.60;70.20;;;;;;5095427;28;20028;-86
2022/05/25 05:48:11;;;;;;;7.00;5.22;;;17.60;66.70;;;;;;5095258;28;20154;-86
2022/05/25 05:50:39;;;;;;;9.77;5.07;;;17.80;68.50;;;;;;5095446;28;20031;-86
2022/05/25 05:53:07;;;;;;;6.55;3.80;;;18.00;68.00;;;;;;5096456;28;20027;-87
2022/05/25 05:55:34;;;;;;;5.63;3.50;;;18.20;65.90;;;;;;5096588;28;20020;-87
2022/05/25 05:58:00;;;;;;;3.63;3.00;;;18.40;63.20;;;;;;5096465;28;20032;-86
2022/05/25 06:00:25;;;;;;;4.50;3.28;;;18.40;63.00;;;;;;5095281;28;20035;-86
2022/05/25 06:02:51;;;;;;;3.38;3.05;;;18.50;62.80;;;;;;5112209;28;20056;-87
2022/05/25 06:05:17;;;;;;;6.25;2.97;;;18.60;60.90;;;;;;5094830;28;20028;-87
2022/05/25 06:07:43;;;;;;;5.13;3.47;;;18.70;62.60;;;;;;5095862;28;20050;-87
2022/05/25 06:10:10;;;;;;;5.63;3.00;;;18.80;60.80;;;;;;5094991;28;20020;-86
2022/05/25 06:12:35;;;;;;;4.78;2.78;;;18.80;60.40;;;;;;5094819;28;20031;-87
2022/05/25 06:19:25;;;;;;;4.15;2.65;;;18.90;61.50;;;;;;5094827;28;20024;-87
2022/05/25 06:20:32;;;;;;;4.95;2.95;;;19.10;61.60;;;;;;5096131;28;20023;-86
2022/05/25 06:22:58;;;;;;;5.97;3.00;;;19.20;62.10;;;;;;5095875;28;20020;-87
2022/05/25 06:25:24;;;;;;;6.72;3.30;;;19.20;61.90;;;;;;5094562;28;20017;-87
2022/05/25 06:27:50;;;;;;;5.30;3.03;;;19.20;62.20;;;;;;5094678;28;20050;-87
2022/05/25 06:30:16;;;;;;;6.28;3.30;;;19.20;62.00;;;;;;5095832;28;20104;-87
2022/05/25 06:32:41;;;;;;;3.47;2.92;;;19.20;61.60;;;;;;5095657;28;20048;-87
2022/05/25 06:35:07;;;;;;;3.85;3.00;;;19.20;61.30;;;;;;5094543;28;20035;-87
2022/05/25 06:37:33;;;;;;;5.22;2.90;;;19.20;61.20;;;;;;5095908;28;20530;-87
2022/05/25 06:40:00;;;;;;;3.58;2.53;;;19.30;60.90;;;;;;5094605;28;20126;-87
2022/05/25 06:42:26;;;;;;;2.63;2.42;;;19.40;60.40;;;;;;5095427;28;20056;-87
2022/05/25 06:44:52;;;;;;;3.30;2.65;;;19.50;59.70;;;;;;5111163;28;20052;-86
2022/05/25 06:47:18;;;;;;;3.65;2.38;;;19.50;58.80;;;;;;5094420;28;20035;-86
2022/05/25 06:49:44;;;;;;;4.60;2.33;;;19.60;57.10;;;;;;5095482;28;20106;-86
2022/05/25 06:52:12;;;;;;;2.50;2.20;;;19.70;57.80;;;;;;5095491;28;20031;-87
2022/05/25 06:54:38;;;;;;;3.30;2.28;;;19.70;57.20;;;;;;5094013;28;20351;-87
2022/05/25 06:57:04;;;;;;;3.05;1.95;;;19.80;56.40;;;;;;5093911;28;20020;-86
2022/05/25 06:59:30;;;;;;;2.13;1.88;;;19.90;53.90;;;;;;5111276;28;20036;-87
2022/05/25 07:01:56;;;;;;;5.97;1.90;;;19.90;53.30;;;;;;5093985;28;20032;-87
2022/05/25 07:04:22;;;;;;;4.25;2.03;;;19.90;53.50;;;;;;5093931;28;20402;-88
2022/05/25 07:06:47;;;;;;;3.08;2.42;;;20.00;53.50;;;;;;5094189;28;20028;-87
2022/05/25 07:09:13;;;;;;;4.05;2.17;;;20.00;53.90;;;;;;5093872;28;20048;-87
2022/05/25 07:11:41;;;;;;;4.82;2.65;;;20.10;52.70;;;;;;5093935;28;20381;-87
2022/05/25 07:14:06;;;;;;;2.53;1.90;;;20.20;53.90;;;;;;5094006;28;20020;-87
2022/05/25 07:16:32;;;;;;;3.65;2.17;;;20.20;52.60;;;;;;5093481;28;20020;-87
2022/05/25 07:18:58;;;;;;;2.22;2.03;;;20.30;52.10;;;;;;5094865;28;20370;-87
2022/05/25 07:21:27;;;;;;;2.00;1.77;;;20.30;50.80;;;;;;5095079;28;20024;-87
2022/05/25 07:23:55;;;;;;;2.07;1.93;;;20.40;51.50;;;;;;5093538;28;20099;-87
2022/05/25 07:26:24;;;;;;;3.42;2.20;;;20.50;51.50;;;;;;5094398;28;20032;-88
2022/05/25 07:28:53;;;;;;;3.60;2.28;;;20.50;51.50;;;;;;5093093;28;20040;-87
2022/05/25 07:31:25;;;;;;;3.35;2.10;;;20.60;51.00;;;;;;5093530;28;20016;-87
2022/05/25 07:34:06;;;;;;;1.88;1.77;;;20.60;50.90;;;;;;5094741;28;20013;-85
2022/05/25 07:36:33;;;;;;;4.57;2.17;;;20.60;48.90;;;;;;5093106;28;20020;-85
2022/05/25 07:39:03;;;;;;;2.22;1.83;;;20.70;50.10;;;;;;5093799;28;20039;-87
2022/05/25 07:41:31;;;;;;;4.05;2.00;;;20.60;48.00;;;;;;5092932;28;20027;-85
2022/05/25 07:43:58;;;;;;;7.47;3.15;;;20.60;48.30;;;;;;5092850;28;20119;-85
2022/05/25 07:46:28;;;;;;;7.82;2.90;;;20.70;49.90;;;;;;5093018;28;20443;-85
2022/05/25 07:48:54;;;;;;;2.13;1.88;;;20.70;50.40;;;;;;5092595;28;20363;-85
2022/05/25 07:51:20;;;;;;;6.25;2.25;;;20.90;50.50;;;;;;5094216;28;20062;-85
2022/05/25 07:53:55;;;;;;;2.30;1.85;;;21.00;49.70;;;;;;5093971;28;20028;-86
2022/05/25 07:56:22;;;;;;;2.88;1.95;;;21.00;49.50;;;;;;5093898;28;20374;-84
2022/05/25 07:58:48;;;;;;;3.80;2.03;;;21.00;50.10;;;;;;5093931;28;20492;-85
2022/05/25 08:01:17;;;;;;;3.00;2.00;;;21.10;48.50;;;;;;5094047;28;20037;-84
2022/05/25 08:06:31;;;;;;;2.88;1.92;;;21.20;49.20;;;;;;5094021;28;20035;-85
2022/05/25 08:08:57;;;;;;;3.08;2.40;;;21.30;48.60;;;;;;5092273;28;20056;-85
2022/05/25 08:11:23;;;;;;;3.47;2.40;;;21.20;49.50;;;;;;5093729;28;20048;-85
2022/05/25 08:13:53;;;;;;;3.67;2.67;;;21.20;49.20;;;;;;5092480;28;20112;-85
2022/05/25 08:16:19;;;;;;;;;;;21.40;49.00;;;;;;5093115;28;20032;-84
2022/05/25 08:18:45;;;;;;;6.18;2.80;;;21.30;48.40;;;;;;5092661;28;19908;-85
2022/05/25 08:21:11;;;;;;;5.72;2.47;;;21.30;48.40;;;;;;5092359;28;20557;-85
2022/05/25 08:23:36;;;;;;;3.17;2.20;;;21.50;48.90;;;;;;5093676;28;20086;-85
2022/05/25 08:26:03;;;;;;;5.65;2.35;;;21.50;47.50;;;;;;5092378;28;20047;-85
2022/05/25 08:28:28;;;;;;;5.18;2.22;;;21.70;48.70;;;;;;5093596;28;20048;-85
2022/05/25 08:30:54;;;;;;;4.20;1.90;;;21.70;48.70;;;;;;5093609;28;20074;-85
2022/05/25 08:33:22;;;;;;;2.03;1.92;;;21.80;46.90;;;;;;5093535;28;20047;-85
2022/05/25 08:35:49;;;;;;;1.58;1.48;;;21.80;47.10;;;;;;5092244;28;20066;-84
2022/05/25 08:38:15;;;;;;;3.42;1.90;;;21.80;48.10;;;;;;5093554;28;20077;-84
2022/05/25 08:40:42;;;;;;;2.60;1.98;;;21.80;46.30;;;;;;5093500;28;20430;-84
2022/05/25 08:43:23;;;;;;;3.72;1.80;;;21.90;46.30;;;;;;5092392;28;20466;-85
2022/05/25 08:45:52;;;;;;;2.60;1.60;;;21.90;46.80;;;;;;5093426;28;20032;-85
2022/05/25 08:48:19;;;;;;;5.93;2.10;;;22.00;47.30;;;;;;5093306;28;20027;-84
2022/05/25 08:50:51;;;;;;;6.97;2.88;;;22.20;46.90;;;;;;5094415;28;20024;-84
2022/05/25 08:53:20;;;;;;;2.10;1.80;;;22.20;47.80;;;;;;5097451;28;20020;-84
2022/05/25 08:56:07;;;;;;;5.10;1.95;;;22.10;46.40;;;;;;5096120;28;20378;-84
2022/05/25 08:59:00;;;;;;;2.13;1.90;;;22.10;46.00;;;;;;5095908;28;20020;-84
2022/05/25 09:01:41;;;;;;;2.53;1.52;;;22.20;46.00;;;;;;5065563;28;20043;-84
2022/05/25 09:04:22;;;;;;;1.73;1.58;;;22.30;44.70;;;;;;5097133;28;20106;-84
2022/05/25 09:07:12;;;;;;;2.17;1.60;;;22.40;44.40;;;;;;5095913;28;20546;-85
2022/05/25 09:09:44;;;;;;;7.63;2.38;;;22.60;44.20;;;;;;5095689;28;20048;-85
2022/05/25 09:12:24;;;;;;;3.60;1.67;;;22.60;44.40;;;;;;5097106;28;20100;-84
2022/05/25 09:14:52;;;;;;;1.60;1.50;;;22.30;43.20;;;;;;5095546;28;20158;-84
2022/05/25 09:17:43;;;;;;;3.67;1.77;;;22.00;42.90;;;;;;5096738;28;20024;-84
2022/05/25 09:20:13;;;;;;;2.92;1.52;;;21.80;42.90;;;;;;5059309;28;20031;-84
2022/05/25 09:22:41;;;;;;;3.30;1.55;;;21.80;43.90;;;;;;5095446;28;20020;-85
2022/05/25 09:25:09;;;;;;;5.90;1.73;;;21.90;44.40;;;;;;5096565;28;20020;-84
2022/05/25 09:27:43;;;;;;;1.40;1.20;;;22.00;43.00;;;;;;5095208;28;20020;-84
2022/05/25 09:30:10;;;;;;;1.63;1.52;;;21.90;42.60;;;;;;5096626;28;20118;-84
2022/05/25 09:32:56;;;;;;;2.53;1.70;;;21.90;42.40;;;;;;5095292;28;20031;-84
2022/05/25 09:35:24;;;;;;;2.55;1.60;;;21.90;42.10;;;;;;5095217;28;20016;-84
2022/05/25 09:37:56;;;;;;;2.25;2.00;;;21.90;42.80;;;;;;5096253;28;20020;-84
2022/05/25 09:40:38;;;;;;;3.90;1.63;;;22.00;43.10;;;;;;5095156;28;20024;-84
2022/05/25 09:43:08;;;;;;;1.88;1.52;;;22.10;43.20;;;;;;5095165;28;20024;-84
2022/05/25 09:45:42;;;;;;;4.30;1.55;;;22.20;42.70;;;;;;5096265;28;20360;-84
2022/05/25 09:48:32;;;;;;;6.25;1.90;;;22.20;42.20;;;;;;5096033;28;20428;-85
2022/05/25 09:51:22;;;;;;;;;;;22.20;42.50;;;;;;5087833;28;20029;-84
2022/05/25 09:54:13;;;;;;;2.42;1.77;;;22.20;43.20;;;;;;5094901;28;20291;-84
2022/05/25 09:56:44;;;;;;;4.15;1.90;;;22.20;42.50;;;;;;5094875;28;20118;-84
2022/05/25 09:59:35;;;;;;;2.50;1.95;;;22.10;42.80;;;;;;5096079;28;20031;-85
2022/05/25 10:02:02;;;;;;;3.20;1.83;;;22.20;43.50;;;;;;5102312;28;20035;-84
2022/05/25 10:04:52;;;;;;;2.20;1.80;;;22.20;43.80;;;;;;5095930;28;20028;-84
2022/05/25 10:07:39;;;;;;;2.15;1.95;;;22.30;43.70;;;;;;5095762;28;20027;-84
2022/05/25 10:10:10;;;;;;;2.15;1.90;;;22.40;43.50;;;;;;5095776;28;20032;-84
2022/05/25 10:12:38;;;;;;;1.63;1.52;;;22.30;43.50;;;;;;5094529;28;20023;-84
2022/05/25 10:15:08;;;;;;;1.45;1.35;;;22.40;44.40;;;;;;5094537;28;20020;-84
2022/05/25 10:17:46;;;;;;;5.60;1.55;;;22.40;44.60;;;;;;5095899;28;20103;-84
2022/05/25 10:20:30;;;;;;;3.78;1.80;;;22.60;45.40;;;;;;5095667;28;20024;-84
2022/05/25 10:23:11;;;;;;;2.38;1.88;;;22.60;44.50;;;;;;5094350;28;20385;-84
2022/05/25 10:25:43;;;;;;;4.47;2.33;;;22.70;44.80;;;;;;5095607;28;20024;-84
2022/05/25 10:28:18;;;;;;;3.90;1.60;;;22.70;45.50;;;;;;5094250;28;20024;-84
2022/05/25 10:39:24;;;;;;;2.13;1.92;;;22.80;46.30;;;;;;5095545;28;20042;-84
2022/05/25 10:42:05;;;;;;;2.20;1.77;;;22.90;45.50;;;;;;5093945;28;20115;-84
2022/05/25 10:45:07;;;;;;;4.50;1.90;;;23.10;45.80;;;;;;5093896;28;20424;-84
2022/05/25 10:47:57;;;;;;;4.07;2.03;;;23.10;44.80;;;;;;5093944;28;20028;-85
2022/05/25 10:50:55;;;;;;;2.45;1.85;;;23.10;45.70;;;;;;5095187;28;20386;-84
2022/05/25 10:54:44;;;;;;;2.17;1.98;;;23.20;46.20;;;;;;5093805;28;20024;-84
2022/05/25 10:56:56;;;;;;;2.03;1.92;;;23.40;46.50;;;;;;5094876;28;20048;-84
2022/05/25 10:59:34;;;;;;;1.80;1.70;;;23.40;44.50;;;;;;5093591;28;20027;-84
2022/05/25 11:02:31;;;;;;;3.42;1.73;;;23.20;44.80;;;;;;5093616;28;20437;-84
2022/05/25 11:05:03;;;;;;;3.13;1.65;;;23.20;44.70;;;;;;5093511;28;20031;-84
2022/05/25 11:07:40;;;;;;;3.08;1.60;;;23.40;44.80;;;;;;5093240;28;20176;-84
2022/05/25 11:10:19;;;;;;;2.28;2.05;;;23.40;44.10;;;;;;5093316;28;20572;-84
2022/05/25 11:13:09;;;;;;;2.55;1.90;;;23.40;44.20;;;;;;5093024;28;20020;-84
2022/05/25 11:16:08;;;;;;;2.75;2.00;;;23.50;44.00;;;;;;5093400;28;20428;-85
2022/05/25 11:18:52;;;;;;;4.97;1.77;;;23.30;42.60;;;;;;5093175;28;20533;-84
2022/05/25 11:21:25;;;;;;;2.80;2.10;;;23.30;43.80;;;;;;5094533;28;20028;-84
2022/05/25 11:24:03;;;;;;;1.67;1.58;;;23.20;43.40;;;;;;5093245;28;20398;-84
2022/05/25 11:27:05;;;;;;;5.53;2.00;;;23.20;43.20;;;;;;5093117;28;20028;-84
2022/05/25 11:29:31;;;;;;;2.10;1.90;;;23.40;43.60;;;;;;5092973;28;20028;-84
2022/05/25 11:32:16;;;;;;;2.85;2.15;;;23.50;42.80;;;;;;5094485;28;20024;-84
2022/05/25 11:35:11;;;;;;;1.80;1.70;;;23.60;42.60;;;;;;5093012;28;20020;-84
2022/05/25 11:37:55;;;;;;;1.90;1.70;;;23.60;42.70;;;;;;5092970;28;20016;-84
2022/05/25 11:40:51;;;;;;;2.38;1.80;;;23.90;43.50;;;;;;5092945;28;20024;-83
2022/05/25 11:43:45;;;;;;;2.20;2.00;;;24.10;42.50;;;;;;5092837;28;20020;-85
2022/05/25 11:46:32;;;;;;;17.73;3.40;;;24.60;43.20;;;;;;5092757;28;20423;-85
2022/05/25 11:49:16;;;;;;;4.25;2.78;;;25.30;43.60;;;;;;5092842;28;20078;-86
2022/05/25 11:51:48;;;;;;;2.00;1.50;;;26.40;42.80;;;;;;5092767;28;20470;-85
2022/05/25 11:54:32;;;;;;;4.70;2.17;;;27.50;42.10;;;;;;5094079;28;20103;-83
2022/05/25 11:57:07;;;;;;;3.28;1.65;;;28.30;41.20;;;;;;5092588;28;20024;-83
2022/05/25 11:59:50;;;;;;;2.08;1.50;;;28.80;40.40;;;;;;5092564;28;20028;-82
2022/05/25 12:02:40;;;;;;;3.05;2.00;;;29.50;40.10;;;;;;5092588;28;20382;-83
2022/05/25 12:05:20;;;;;;;4.20;1.80;;;30.00;39.60;;;;;;5093782;28;20031;-83
2022/05/25 12:08:25;;;;;;;3.55;1.65;;;30.60;38.80;;;;;;5092191;28;20404;-83
2022/05/25 12:11:12;;;;;;;3.47;1.92;;;30.70;37.70;;;;;;5085181;28;20055;-83
2022/05/25 12:13:57;;;;;;;1.67;1.58;;;31.70;37.80;;;;;;5092345;28;20028;-83
2022/05/25 12:16:31;;;;;;;4.15;1.55;;;32.60;37.60;;;;;;5093875;28;20024;-84
2022/05/25 12:19:01;;;;;;;1.92;1.73;;;33.30;37.20;;;;;;5092324;28;20035;-84
2022/05/25 12:21:36;;;;;;;2.72;1.77;;;33.60;36.10;;;;;;5092348;28;20024;-83
2022/05/25 12:24:06;;;;;;;2.30;1.70;;;34.00;36.10;;;;;;5093733;28;20021;-83
2022/05/25 12:26:34;;;;;;;1.80;1.70;;;34.40;35.30;;;;;;5096318;28;20020;-83
2022/05/25 12:29:27;;;;;;;1.95;1.70;;;34.30;36.50;;;;;;5096423;28;20092;-84
2022/05/25 12:31:56;;;;;;;2.55;1.60;;;34.20;34.60;;;;;;5096457;28;20082;-83
2022/05/25 12:34:41;;;;;;;5.80;1.50;;;34.20;36.50;;;;;;5096609;28;20071;-84
2022/05/25 12:37:10;;;;;;;3.70;1.50;;;34.70;34.40;;;;;;5097838;28;20023;-84
2022/05/25 12:39:42;;;;;;;;;;;34.80;35.10;;;;;;5096692;28;20123;-84
2022/05/25 12:42:23;;;;;;;1.52;1.42;;;34.90;34.30;;;;;;5097448;28;19963;-84
2022/05/25 12:50:40;;;;;;;5.35;1.70;;;34.80;35.40;;;;;;5097613;28;20035;-84
2022/05/25 12:53:32;;;;;;;2.47;1.60;;;35.10;33.90;;;;;;5097371;28;20055;-84
2022/05/25 12:56:10;;;;;;;2.63;1.55;;;34.20;33.70;;;;;;5077224;28;20028;-83
2022/05/25 12:58:53;;;;;;;1.88;1.40;;;33.60;34.50;;;;;;5097356;28;20024;-83
2022/05/25 13:01:28;;;;;;;3.92;1.58;;;32.20;34.50;;;;;;5095934;28;20028;-83
2022/05/25 13:03:57;;;;;;;7.07;1.98;;;31.50;35.40;;;;;;5096040;28;20055;-83
2022/05/25 13:06:29;;;;;;;1.75;1.60;;;30.30;35.80;;;;;;5095755;28;20023;-83
2022/05/25 13:08:58;;;;;;;2.05;1.83;;;29.50;36.40;;;;;;5095628;28;20055;-83
2022/05/25 13:11:33;;;;;;;;;;;28.80;37.00;;;;;;5096132;28;20016;-83
2022/05/25 13:14:18;;;;;;;2.25;1.70;;;28.60;37.60;;;;;;5097043;28;19911;-83
2022/05/25 13:16:48;;;;;;;2.40;1.70;;;28.50;38.10;;;;;;5096878;28;20036;-83
2022/05/25 13:19:43;;;;;;;4.88;1.92;;;28.00;38.80;;;;;;5096876;28;20024;-83
2022/05/25 13:22:18;;;;;;;2.50;1.80;;;28.10;39.20;;;;;;5095625;28;20479;-83
2022/05/25 13:25:03;;;;;;;7.20;2.30;;;27.60;38.50;;;;;;5095314;28;20106;-83
2022/05/25 13:27:37;;;;;;;16.10;5.25;;;27.30;38.70;;;;;;5096737;28;20016;-83
2022/05/25 13:30:44;;;;;;;11.05;3.67;;;27.20;39.00;;;;;;5095386;28;20488;-83
2022/05/25 13:33:19;;;;;;;8.25;1.83;;;27.30;40.00;;;;;;5095432;28;20032;-83
2022/05/25 13:35:49;;;;;;;2.63;1.70;;;27.20;39.60;;;;;;5096308;28;20137;-83
2022/05/25 13:38:29;;;;;;;1.70;1.60;;;27.10;39.50;;;;;;5096146;28;20073;-83
2022/05/25 13:40:55;;;;;;;4.03;1.88;;;27.20;39.80;;;;;;5095412;28;20103;-83